sensor_id;sensor_type;location;lat;lon;timestamp;pressure;altitude;pressure_sealevel;temperature
42197;BMP280;27866;48.146;17.098;2022-11-24T00:00:36;98749.25;;;8.46
42197;BMP280;27866;48.146;17.098;2022-11-24T00:04:48;98762.59;;;8.40
42197;BMP280;27866;48.146;17.098;2022-11-24T00:08:59;98754.41;;;8.46
42197;BMP280;27866;48.146;17.098;2022-11-24T00:13:10;98760.84;;;8.40
42197;BMP280;27866;48.146;17.098;2022-11-24T00:17:22;98764.94;;;8.43
42197;BMP280;27866;48.146;17.098;2022-11-24T00:21:34;98775.00;;;8.35
42197;BMP280;27866;48.146;17.098;2022-11-24T00:25:45;98784.84;;;8.41
42197;BMP280;27866;48.146;17.098;2022-11-24T00:29:56;98783.69;;;8.34
42197;BMP280;27866;48.146;17.098;2022-11-24T00:34:12;98793.41;;;8.31
42197;BMP280;27866;48.146;17.098;2022-11-24T00:38:23;98795.16;;;8.30
42197;BMP280;27866;48.146;17.098;2022-11-24T00:42:35;98798.19;;;8.35
42197;BMP280;27866;48.146;17.098;2022-11-24T00:46:46;98791.41;;;8.34
42197;BMP280;27866;48.146;17.098;2022-11-24T00:51:02;98798.56;;;8.41
42197;BMP280;27866;48.146;17.098;2022-11-24T00:55:15;98802.09;;;8.40
42197;BMP280;27866;48.146;17.098;2022-11-24T00:59:26;98817.59;;;8.51
42197;BMP280;27866;48.146;17.098;2022-11-24T01:03:37;98833.25;;;8.38
42197;BMP280;27866;48.146;17.098;2022-11-24T01:07:48;98836.53;;;8.29
42197;BMP280;27866;48.146;17.098;2022-11-24T01:12:00;98841.91;;;8.26
42197;BMP280;27866;48.146;17.098;2022-11-24T01:16:33;98836.97;;;8.23
42197;BMP280;27866;48.146;17.098;2022-11-24T01:20:44;98839.31;;;8.26
42197;BMP280;27866;48.146;17.098;2022-11-24T01:24:55;98845.44;;;8.25
42197;BMP280;27866;48.146;17.098;2022-11-24T01:29:08;98844.00;;;8.21
42197;BMP280;27866;48.146;17.098;2022-11-24T01:33:21;98838.50;;;8.25
42197;BMP280;27866;48.146;17.098;2022-11-24T01:37:32;98837.94;;;8.33
42197;BMP280;27866;48.146;17.098;2022-11-24T01:41:43;98834.94;;;8.39
42197;BMP280;27866;48.146;17.098;2022-11-24T01:45:55;98848.84;;;8.36
42197;BMP280;27866;48.146;17.098;2022-11-24T01:50:13;98856.47;;;8.38
42197;BMP280;27866;48.146;17.098;2022-11-24T01:54:30;98867.38;;;8.41
42197;BMP280;27866;48.146;17.098;2022-11-24T01:58:43;98863.28;;;8.39
42197;BMP280;27866;48.146;17.098;2022-11-24T02:02:56;98854.22;;;8.33
42197;BMP280;27866;48.146;17.098;2022-11-24T02:07:09;98859.03;;;8.27
42197;BMP280;27866;48.146;17.098;2022-11-24T02:11:23;98860.06;;;8.25
42197;BMP280;27866;48.146;17.098;2022-11-24T02:15:35;98853.47;;;8.21
42197;BMP280;27866;48.146;17.098;2022-11-24T02:19:56;98840.84;;;8.18
42197;BMP280;27866;48.146;17.098;2022-11-24T02:28:46;98845.16;;;8.17
42197;BMP280;27866;48.146;17.098;2022-11-24T02:32:58;98841.63;;;8.18
42197;BMP280;27866;48.146;17.098;2022-11-24T02:37:09;98844.22;;;8.18
42197;BMP280;27866;48.146;17.098;2022-11-24T02:41:22;98841.31;;;8.23
42197;BMP280;27866;48.146;17.098;2022-11-24T02:45:35;98840.28;;;8.25
42197;BMP280;27866;48.146;17.098;2022-11-24T02:49:46;98840.72;;;8.19
42197;BMP280;27866;48.146;17.098;2022-11-24T02:53:57;98838.41;;;8.27
42197;BMP280;27866;48.146;17.098;2022-11-24T02:58:08;98839.81;;;8.31
42197;BMP280;27866;48.146;17.098;2022-11-24T03:02:19;98839.59;;;8.34
42197;BMP280;27866;48.146;17.098;2022-11-24T03:06:31;98849.44;;;8.29
42197;BMP280;27866;48.146;17.098;2022-11-24T03:10:44;98859.50;;;8.32
42197;BMP280;27866;48.146;17.098;2022-11-24T03:14:55;98853.44;;;8.33
42197;BMP280;27866;48.146;17.098;2022-11-24T03:19:06;98860.22;;;8.34
42197;BMP280;27866;48.146;17.098;2022-11-24T03:23:17;98858.34;;;8.36
42197;BMP280;27866;48.146;17.098;2022-11-24T03:27:29;98868.44;;;8.39
42197;BMP280;27866;48.146;17.098;2022-11-24T03:31:41;98875.84;;;8.43
42197;BMP280;27866;48.146;17.098;2022-11-24T03:35:52;98874.31;;;8.40
42197;BMP280;27866;48.146;17.098;2022-11-24T03:40:03;98881.22;;;8.40
42197;BMP280;27866;48.146;17.098;2022-11-24T03:44:14;98887.56;;;8.47
42197;BMP280;27866;48.146;17.098;2022-11-24T03:48:26;98893.09;;;8.42
42197;BMP280;27866;48.146;17.098;2022-11-24T03:52:37;98902.91;;;8.38
42197;BMP280;27866;48.146;17.098;2022-11-24T03:56:48;98894.69;;;8.33
42197;BMP280;27866;48.146;17.098;2022-11-24T04:00:59;98903.72;;;8.38
42197;BMP280;27866;48.146;17.098;2022-11-24T04:05:10;98908.19;;;8.36
42197;BMP280;27866;48.146;17.098;2022-11-24T04:09:21;98903.84;;;8.37
42197;BMP280;27866;48.146;17.098;2022-11-24T04:13:32;98916.50;;;8.39
42197;BMP280;27866;48.146;17.098;2022-11-24T04:17:45;98915.59;;;8.40
42197;BMP280;27866;48.146;17.098;2022-11-24T04:21:56;98924.50;;;8.47
42197;BMP280;27866;48.146;17.098;2022-11-24T04:26:07;98927.81;;;8.49
42197;BMP280;27866;48.146;17.098;2022-11-24T04:30:20;98934.00;;;8.47
42197;BMP280;27866;48.146;17.098;2022-11-24T04:34:31;98938.13;;;8.49
42197;BMP280;27866;48.146;17.098;2022-11-24T04:38:42;98946.25;;;8.55
42197;BMP280;27866;48.146;17.098;2022-11-24T04:42:54;98952.47;;;8.64
42197;BMP280;27866;48.146;17.098;2022-11-24T04:47:05;98971.94;;;8.57
42197;BMP280;27866;48.146;17.098;2022-11-24T04:51:16;98979.94;;;8.65
42197;BMP280;27866;48.146;17.098;2022-11-24T04:55:29;98982.00;;;8.60
42197;BMP280;27866;48.146;17.098;2022-11-24T04:59:40;98991.41;;;8.61
42197;BMP280;27866;48.146;17.098;2022-11-24T05:03:55;98998.28;;;8.72
42197;BMP280;27866;48.146;17.098;2022-11-24T05:08:07;98997.56;;;8.70
42197;BMP280;27866;48.146;17.098;2022-11-24T05:12:18;99014.78;;;8.70
42197;BMP280;27866;48.146;17.098;2022-11-24T05:16:29;99018.09;;;8.72
42197;BMP280;27866;48.146;17.098;2022-11-24T05:20:41;99017.38;;;8.70
42197;BMP280;27866;48.146;17.098;2022-11-24T05:24:54;99019.13;;;8.69
42197;BMP280;27866;48.146;17.098;2022-11-24T05:29:05;99022.53;;;8.70
42197;BMP280;27866;48.146;17.098;2022-11-24T05:33:17;99030.66;;;8.76
42197;BMP280;27866;48.146;17.098;2022-11-24T05:37:30;99016.69;;;8.79
42197;BMP280;27866;48.146;17.098;2022-11-24T05:41:41;99023.00;;;8.75
42197;BMP280;27866;48.146;17.098;2022-11-24T05:45:52;99029.94;;;8.74
42197;BMP280;27866;48.146;17.098;2022-11-24T05:50:04;99029.72;;;8.77
42197;BMP280;27866;48.146;17.098;2022-11-24T05:54:15;99034.91;;;8.88
42197;BMP280;27866;48.146;17.098;2022-11-24T05:58:26;99043.50;;;8.88
42197;BMP280;27866;48.146;17.098;2022-11-24T06:02:37;99043.59;;;8.87
42197;BMP280;27866;48.146;17.098;2022-11-24T06:06:49;99051.34;;;8.87
42197;BMP280;27866;48.146;17.098;2022-11-24T06:11:01;99051.59;;;8.84
42197;BMP280;27866;48.146;17.098;2022-11-24T06:15:27;99061.28;;;8.81
42197;BMP280;27866;48.146;17.098;2022-11-24T06:19:38;99074.69;;;8.85
42197;BMP280;27866;48.146;17.098;2022-11-24T06:23:50;99081.38;;;8.88
42197;BMP280;27866;48.146;17.098;2022-11-24T06:28:03;99084.91;;;8.87
42197;BMP280;27866;48.146;17.098;2022-11-24T06:32:15;99098.97;;;8.83
42197;BMP280;27866;48.146;17.098;2022-11-24T06:36:27;99102.56;;;8.81
42197;BMP280;27866;48.146;17.098;2022-11-24T06:40:38;99111.75;;;8.84
42197;BMP280;27866;48.146;17.098;2022-11-24T06:44:49;99109.59;;;8.79
42197;BMP280;27866;48.146;17.098;2022-11-24T06:49:00;99109.53;;;8.80
42197;BMP280;27866;48.146;17.098;2022-11-24T06:53:12;99112.00;;;8.82
42197;BMP280;27866;48.146;17.098;2022-11-24T06:57:23;99127.66;;;8.79
42197;BMP280;27866;48.146;17.098;2022-11-24T07:01:34;99132.84;;;8.79
42197;BMP280;27866;48.146;17.098;2022-11-24T07:05:45;99142.13;;;8.81
42197;BMP280;27866;48.146;17.098;2022-11-24T07:09:56;99144.72;;;8.81
42197;BMP280;27866;48.146;17.098;2022-11-24T07:14:08;99167.50;;;8.87
42197;BMP280;27866;48.146;17.098;2022-11-24T07:18:21;99154.28;;;8.91
42197;BMP280;27866;48.146;17.098;2022-11-24T07:22:33;99152.59;;;9.02
42197;BMP280;27866;48.146;17.098;2022-11-24T07:26:44;99160.97;;;9.16
42197;BMP280;27866;48.146;17.098;2022-11-24T07:30:55;99164.34;;;9.29
42197;BMP280;27866;48.146;17.098;2022-11-24T07:35:07;99176.66;;;9.26
42197;BMP280;27866;48.146;17.098;2022-11-24T07:39:18;99169.22;;;9.21
42197;BMP280;27866;48.146;17.098;2022-11-24T07:43:34;99176.09;;;9.33
42197;BMP280;27866;48.146;17.098;2022-11-24T07:47:45;99172.25;;;9.38
42197;BMP280;27866;48.146;17.098;2022-11-24T07:51:56;99179.81;;;9.52
42197;BMP280;27866;48.146;17.098;2022-11-24T07:56:08;99177.59;;;9.58
42197;BMP280;27866;48.146;17.098;2022-11-24T08:00:19;99182.81;;;9.69
42197;BMP280;27866;48.146;17.098;2022-11-24T08:04:31;99182.72;;;9.70
42197;BMP280;27866;48.146;17.098;2022-11-24T08:08:42;99182.16;;;9.77
42197;BMP280;27866;48.146;17.098;2022-11-24T08:12:53;99176.09;;;9.89
42197;BMP280;27866;48.146;17.098;2022-11-24T08:17:05;99184.69;;;10.00
42197;BMP280;27866;48.146;17.098;2022-11-24T08:21:17;99187.78;;;10.15
42197;BMP280;27866;48.146;17.098;2022-11-24T08:25:28;99192.75;;;10.29
42197;BMP280;27866;48.146;17.098;2022-11-24T08:29:42;99197.25;;;10.48
42197;BMP280;27866;48.146;17.098;2022-11-24T08:33:54;99200.53;;;10.61
42197;BMP280;27866;48.146;17.098;2022-11-24T08:38:06;99204.72;;;10.94
42197;BMP280;27866;48.146;17.098;2022-11-24T08:42:17;99216.72;;;11.16
42197;BMP280;27866;48.146;17.098;2022-11-24T08:46:28;99223.06;;;11.33
42197;BMP280;27866;48.146;17.098;2022-11-24T08:50:39;99223.56;;;11.28
42197;BMP280;27866;48.146;17.098;2022-11-24T08:54:50;99239.34;;;11.14
42197;BMP280;27866;48.146;17.098;2022-11-24T08:59:02;99232.84;;;11.30
42197;BMP280;27866;48.146;17.098;2022-11-24T09:03:13;99237.53;;;11.46
42197;BMP280;27866;48.146;17.098;2022-11-24T09:07:24;99246.09;;;11.58
42197;BMP280;27866;48.146;17.098;2022-11-24T09:11:35;99250.13;;;11.81
42197;BMP280;27866;48.146;17.098;2022-11-24T09:15:46;99259.50;;;11.93
42197;BMP280;27866;48.146;17.098;2022-11-24T09:19:58;99258.94;;;12.09
42197;BMP280;27866;48.146;17.098;2022-11-24T09:24:09;99256.63;;;12.46
42197;BMP280;27866;48.146;17.098;2022-11-24T09:28:20;99251.25;;;12.58
42197;BMP280;27866;48.146;17.098;2022-11-24T09:32:32;99252.59;;;12.33
42197;BMP280;27866;48.146;17.098;2022-11-24T09:36:43;99255.47;;;12.39
42197;BMP280;27866;48.146;17.098;2022-11-24T09:40:55;99251.88;;;12.31
42197;BMP280;27866;48.146;17.098;2022-11-24T09:50:15;99260.19;;;12.25
42197;BMP280;27866;48.146;17.098;2022-11-24T09:54:29;99256.69;;;12.16
42197;BMP280;27866;48.146;17.098;2022-11-24T10:02:56;99235.19;;;13.02
42197;BMP280;27866;48.146;17.098;2022-11-24T10:07:17;99240.22;;;13.32
42197;BMP280;27866;48.146;17.098;2022-11-24T10:11:58;99233.66;;;13.00
42197;BMP280;27866;48.146;17.098;2022-11-24T10:16:25;99237.81;;;12.73
42197;BMP280;27866;48.146;17.098;2022-11-24T10:20:53;99232.13;;;12.59
42197;BMP280;27866;48.146;17.098;2022-11-24T10:29:41;99230.47;;;12.18
42197;BMP280;27866;48.146;17.098;2022-11-24T10:33:52;99226.31;;;12.07
42197;BMP280;27866;48.146;17.098;2022-11-24T10:42:36;99232.06;;;12.10
42197;BMP280;27866;48.146;17.098;2022-11-24T10:46:47;99243.00;;;12.14
42197;BMP280;27866;48.146;17.098;2022-11-24T11:04:33;99252.38;;;12.25
42197;BMP280;27866;48.146;17.098;2022-11-24T11:08:44;99246.03;;;12.18
42197;BMP280;27866;48.146;17.098;2022-11-24T11:12:55;99249.03;;;12.14
42197;BMP280;27866;48.146;17.098;2022-11-24T11:17:34;99255.31;;;11.81
42197;BMP280;27866;48.146;17.098;2022-11-24T11:21:46;99250.38;;;11.48
42197;BMP280;27866;48.146;17.098;2022-11-24T11:26:37;99239.56;;;11.32
42197;BMP280;27866;48.146;17.098;2022-11-24T11:31:05;99240.84;;;11.38
42197;BMP280;27866;48.146;17.098;2022-11-24T11:35:31;99252.38;;;11.44
42197;BMP280;27866;48.146;17.098;2022-11-24T11:39:47;99244.16;;;11.70
42197;BMP280;27866;48.146;17.098;2022-11-24T11:44:51;99250.53;;;11.97
42197;BMP280;27866;48.146;17.098;2022-11-24T11:49:03;99253.97;;;12.17
42197;BMP280;27866;48.146;17.098;2022-11-24T11:54:00;99262.78;;;12.25
42197;BMP280;27866;48.146;17.098;2022-11-24T12:17:41;99262.28;;;12.71
42197;BMP280;27866;48.146;17.098;2022-11-24T12:22:37;99263.81;;;12.53
42197;BMP280;27866;48.146;17.098;2022-11-24T12:26:57;99268.09;;;12.44
42197;BMP280;27866;48.146;17.098;2022-11-24T12:31:27;99265.94;;;12.29
42197;BMP280;27866;48.146;17.098;2022-11-24T12:35:45;99263.53;;;12.17
42197;BMP280;27866;48.146;17.098;2022-11-24T12:54:17;99292.19;;;11.85
42197;BMP280;27866;48.146;17.098;2022-11-24T13:07:52;99291.47;;;11.93
42197;BMP280;27866;48.146;17.098;2022-11-24T13:12:11;99287.59;;;11.88
42197;BMP280;27866;48.146;17.098;2022-11-24T13:16:23;99292.47;;;11.82
42197;BMP280;27866;48.146;17.098;2022-11-24T13:20:38;99294.56;;;11.77
42197;BMP280;27866;48.146;17.098;2022-11-24T13:25:22;99293.78;;;11.76
42197;BMP280;27866;48.146;17.098;2022-11-24T13:29:38;99297.56;;;11.73
42197;BMP280;27866;48.146;17.098;2022-11-24T13:33:50;99291.78;;;11.69
42197;BMP280;27866;48.146;17.098;2022-11-24T13:38:01;99295.69;;;11.64
42197;BMP280;27866;48.146;17.098;2022-11-24T13:42:12;99305.34;;;11.73
42197;BMP280;27866;48.146;17.098;2022-11-24T13:47:03;99300.38;;;11.70
42197;BMP280;27866;48.146;17.098;2022-11-24T13:51:21;99298.97;;;11.66
42197;BMP280;27866;48.146;17.098;2022-11-24T13:55:36;99311.00;;;11.56
42197;BMP280;27866;48.146;17.098;2022-11-24T13:59:48;99309.28;;;11.46
42197;BMP280;27866;48.146;17.098;2022-11-24T14:04:22;99318.47;;;11.50
42197;BMP280;27866;48.146;17.098;2022-11-24T14:08:36;99323.53;;;11.51
42197;BMP280;27866;48.146;17.098;2022-11-24T14:13:30;99325.06;;;11.43
42197;BMP280;27866;48.146;17.098;2022-11-24T14:17:41;99338.72;;;11.45
42197;BMP280;27866;48.146;17.098;2022-11-24T14:21:52;99335.09;;;11.47
42197;BMP280;27866;48.146;17.098;2022-11-24T14:26:03;99336.84;;;11.47
42197;BMP280;27866;48.146;17.098;2022-11-24T14:30:17;99338.25;;;11.51
42197;BMP280;27866;48.146;17.098;2022-11-24T14:34:30;99335.66;;;11.51
42197;BMP280;27866;48.146;17.098;2022-11-24T14:38:43;99343.44;;;11.51
42197;BMP280;27866;48.146;17.098;2022-11-24T14:42:54;99338.97;;;11.42
42197;BMP280;27866;48.146;17.098;2022-11-24T14:51:43;99346.97;;;11.18
42197;BMP280;27866;48.146;17.098;2022-11-24T15:00:35;99352.16;;;11.18
42197;BMP280;27866;48.146;17.098;2022-11-24T15:04:56;99354.84;;;11.16
42197;BMP280;27866;48.146;17.098;2022-11-24T15:13:53;99360.38;;;11.01
42197;BMP280;27866;48.146;17.098;2022-11-24T15:18:17;99358.75;;;11.00
42197;BMP280;27866;48.146;17.098;2022-11-24T15:22:39;99352.25;;;11.06
42197;BMP280;27866;48.146;17.098;2022-11-24T15:26:58;99367.22;;;11.02
42197;BMP280;27866;48.146;17.098;2022-11-24T15:31:12;99367.69;;;11.07
42197;BMP280;27866;48.146;17.098;2022-11-24T15:35:27;99368.06;;;11.03
42197;BMP280;27866;48.146;17.098;2022-11-24T15:39:38;99375.09;;;10.90
42197;BMP280;27866;48.146;17.098;2022-11-24T15:43:49;99372.16;;;10.84
42197;BMP280;27866;48.146;17.098;2022-11-24T15:48:06;99373.41;;;10.68
42197;BMP280;27866;48.146;17.098;2022-11-24T15:52:17;99382.97;;;10.45
42197;BMP280;27866;48.146;17.098;2022-11-24T15:56:34;99382.69;;;10.37
42197;BMP280;27866;48.146;17.098;2022-11-24T16:00:46;99388.22;;;10.33
42197;BMP280;27866;48.146;17.098;2022-11-24T16:04:57;99402.94;;;10.32
42197;BMP280;27866;48.146;17.098;2022-11-24T16:09:13;99400.22;;;10.34
42197;BMP280;27866;48.146;17.098;2022-11-24T16:13:24;99398.59;;;10.33
42197;BMP280;27866;48.146;17.098;2022-11-24T16:17:35;99402.34;;;10.29
42197;BMP280;27866;48.146;17.098;2022-11-24T16:21:47;99410.47;;;10.13
42197;BMP280;27866;48.146;17.098;2022-11-24T16:25:58;99407.44;;;9.96
42197;BMP280;27866;48.146;17.098;2022-11-24T16:30:11;99428.28;;;9.82
42197;BMP280;27866;48.146;17.098;2022-11-24T16:34:23;99430.97;;;9.69
42197;BMP280;27866;48.146;17.098;2022-11-24T16:38:34;99433.25;;;9.61
42197;BMP280;27866;48.146;17.098;2022-11-24T16:42:45;99440.72;;;9.53
42197;BMP280;27866;48.146;17.098;2022-11-24T16:46:57;99444.44;;;9.49
42197;BMP280;27866;48.146;17.098;2022-11-24T16:51:10;99451.06;;;9.41
42197;BMP280;27866;48.146;17.098;2022-11-24T16:55:21;99454.16;;;9.34
42197;BMP280;27866;48.146;17.098;2022-11-24T16:59:33;99455.63;;;9.26
42197;BMP280;27866;48.146;17.098;2022-11-24T17:03:44;99468.63;;;9.24
42197;BMP280;27866;48.146;17.098;2022-11-24T17:07:55;99466.38;;;9.20
42197;BMP280;27866;48.146;17.098;2022-11-24T17:12:06;99466.47;;;9.18
42197;BMP280;27866;48.146;17.098;2022-11-24T17:16:22;99474.13;;;9.20
42197;BMP280;27866;48.146;17.098;2022-11-24T17:20:33;99476.31;;;9.26
42197;BMP280;27866;48.146;17.098;2022-11-24T17:24:45;99472.66;;;9.40
42197;BMP280;27866;48.146;17.098;2022-11-24T17:28:57;99488.78;;;9.43
42197;BMP280;27866;48.146;17.098;2022-11-24T17:33:08;99497.38;;;9.44
42197;BMP280;27866;48.146;17.098;2022-11-24T17:37:19;99513.91;;;9.54
42197;BMP280;27866;48.146;17.098;2022-11-24T17:41:31;99511.94;;;9.45
42197;BMP280;27866;48.146;17.098;2022-11-24T17:45:42;99515.66;;;9.41
42197;BMP280;27866;48.146;17.098;2022-11-24T17:49:53;99507.50;;;9.47
42197;BMP280;27866;48.146;17.098;2022-11-24T17:54:05;99513.72;;;9.44
42197;BMP280;27866;48.146;17.098;2022-11-24T17:58:16;99520.53;;;9.57
42197;BMP280;27866;48.146;17.098;2022-11-24T18:02:27;99507.50;;;9.71
42197;BMP280;27866;48.146;17.098;2022-11-24T18:06:38;99511.75;;;9.72
42197;BMP280;27866;48.146;17.098;2022-11-24T18:10:49;99520.13;;;9.63
42197;BMP280;27866;48.146;17.098;2022-11-24T18:15:00;99527.66;;;9.66
42197;BMP280;27866;48.146;17.098;2022-11-24T18:19:11;99530.47;;;9.75
42197;BMP280;27866;48.146;17.098;2022-11-24T18:23:23;99529.63;;;9.87
42197;BMP280;27866;48.146;17.098;2022-11-24T18:27:35;99535.63;;;9.87
42197;BMP280;27866;48.146;17.098;2022-11-24T18:31:46;99529.81;;;9.96
42197;BMP280;27866;48.146;17.098;2022-11-24T18:35:59;99529.19;;;10.05
42197;BMP280;27866;48.146;17.098;2022-11-24T18:40:10;99531.06;;;10.03
42197;BMP280;27866;48.146;17.098;2022-11-24T18:44:21;99522.88;;;9.97
42197;BMP280;27866;48.146;17.098;2022-11-24T18:48:33;99545.13;;;9.87
42197;BMP280;27866;48.146;17.098;2022-11-24T18:52:44;99555.91;;;9.93
42197;BMP280;27866;48.146;17.098;2022-11-24T18:56:55;99553.19;;;10.07
42197;BMP280;27866;48.146;17.098;2022-11-24T19:01:10;99558.94;;;10.22
42197;BMP280;27866;48.146;17.098;2022-11-24T19:05:21;99553.72;;;10.34
42197;BMP280;27866;48.146;17.098;2022-11-24T19:09:32;99557.66;;;10.40
42197;BMP280;27866;48.146;17.098;2022-11-24T19:13:43;99561.66;;;10.43
42197;BMP280;27866;48.146;17.098;2022-11-24T19:17:55;99563.41;;;10.55
42197;BMP280;27866;48.146;17.098;2022-11-24T19:22:08;99562.13;;;10.60
42197;BMP280;27866;48.146;17.098;2022-11-24T19:26:19;99566.28;;;10.63
42197;BMP280;27866;48.146;17.098;2022-11-24T19:30:30;99574.53;;;10.68
42197;BMP280;27866;48.146;17.098;2022-11-24T19:34:41;99587.38;;;10.69
42197;BMP280;27866;48.146;17.098;2022-11-24T19:38:55;99597.28;;;10.75
42197;BMP280;27866;48.146;17.098;2022-11-24T19:43:06;99600.81;;;10.74
42197;BMP280;27866;48.146;17.098;2022-11-24T19:47:17;99589.03;;;10.70
42197;BMP280;27866;48.146;17.098;2022-11-24T19:51:34;99594.94;;;10.60
42197;BMP280;27866;48.146;17.098;2022-11-24T19:55:46;99597.72;;;10.46
42197;BMP280;27866;48.146;17.098;2022-11-24T19:59:57;99609.63;;;10.37
42197;BMP280;27866;48.146;17.098;2022-11-24T20:04:11;99616.25;;;10.28
42197;BMP280;27866;48.146;17.098;2022-11-24T20:08:23;99627.03;;;10.23
42197;BMP280;27866;48.146;17.098;2022-11-24T20:12:34;99642.03;;;10.30
42197;BMP280;27866;48.146;17.098;2022-11-24T20:16:45;99647.94;;;10.32
42197;BMP280;27866;48.146;17.098;2022-11-24T20:21:03;99640.88;;;10.34
42197;BMP280;27866;48.146;17.098;2022-11-24T20:25:14;99629.50;;;10.36
42197;BMP280;27866;48.146;17.098;2022-11-24T20:29:26;99646.66;;;10.37
42197;BMP280;27866;48.146;17.098;2022-11-24T20:33:43;99651.44;;;10.43
42197;BMP280;27866;48.146;17.098;2022-11-24T20:37:54;99652.06;;;10.46
42197;BMP280;27866;48.146;17.098;2022-11-24T20:42:07;99645.63;;;10.52
42197;BMP280;27866;48.146;17.098;2022-11-24T20:46:25;99658.03;;;10.47
42197;BMP280;27866;48.146;17.098;2022-11-24T20:50:37;99669.78;;;10.40
42197;BMP280;27866;48.146;17.098;2022-11-24T20:54:48;99671.53;;;10.40
42197;BMP280;27866;48.146;17.098;2022-11-24T20:58:59;99668.50;;;10.45
42197;BMP280;27866;48.146;17.098;2022-11-24T21:03:10;99666.88;;;10.44
42197;BMP280;27866;48.146;17.098;2022-11-24T21:07:22;99673.91;;;10.43
42197;BMP280;27866;48.146;17.098;2022-11-24T21:11:33;99680.22;;;10.39
42197;BMP280;27866;48.146;17.098;2022-11-24T21:15:45;99673.19;;;10.41
42197;BMP280;27866;48.146;17.098;2022-11-24T21:19:56;99669.25;;;10.47
42197;BMP280;27866;48.146;17.098;2022-11-24T21:24:25;99675.84;;;10.51
42197;BMP280;27866;48.146;17.098;2022-11-24T21:28:37;99676.47;;;10.55
42197;BMP280;27866;48.146;17.098;2022-11-24T21:32:48;99676.28;;;10.57
42197;BMP280;27866;48.146;17.098;2022-11-24T21:36:59;99681.03;;;10.63
42197;BMP280;27866;48.146;17.098;2022-11-24T21:41:11;99683.69;;;10.62
42197;BMP280;27866;48.146;17.098;2022-11-24T21:45:24;99683.50;;;10.65
42197;BMP280;27866;48.146;17.098;2022-11-24T21:49:35;99690.13;;;10.69
42197;BMP280;27866;48.146;17.098;2022-11-24T21:53:47;99698.50;;;10.72
42197;BMP280;27866;48.146;17.098;2022-11-24T21:57:58;99704.50;;;10.72
42197;BMP280;27866;48.146;17.098;2022-11-24T22:02:11;99707.00;;;10.74
42197;BMP280;27866;48.146;17.098;2022-11-24T22:06:22;99710.63;;;10.71
42197;BMP280;27866;48.146;17.098;2022-11-24T22:10:33;99704.22;;;10.65
42197;BMP280;27866;48.146;17.098;2022-11-24T22:14:45;99703.38;;;10.52
42197;BMP280;27866;48.146;17.098;2022-11-24T22:18:58;99706.00;;;10.40
42197;BMP280;27866;48.146;17.098;2022-11-24T22:23:09;99706.31;;;10.36
42197;BMP280;27866;48.146;17.098;2022-11-24T22:27:20;99703.19;;;10.43
42197;BMP280;27866;48.146;17.098;2022-11-24T22:31:32;99692.53;;;10.47
42197;BMP280;27866;48.146;17.098;2022-11-24T22:35:43;99707.56;;;10.43
42197;BMP280;27866;48.146;17.098;2022-11-24T22:40:05;99709.84;;;10.35
42197;BMP280;27866;48.146;17.098;2022-11-24T22:44:16;99720.81;;;10.38
42197;BMP280;27866;48.146;17.098;2022-11-24T22:48:28;99726.41;;;10.44
42197;BMP280;27866;48.146;17.098;2022-11-24T22:52:39;99730.44;;;10.48
42197;BMP280;27866;48.146;17.098;2022-11-24T22:56:50;99735.91;;;10.56
42197;BMP280;27866;48.146;17.098;2022-11-24T23:01:06;99727.53;;;10.65
42197;BMP280;27866;48.146;17.098;2022-11-24T23:05:18;99746.25;;;10.68
42197;BMP280;27866;48.146;17.098;2022-11-24T23:09:29;99733.81;;;10.73
42197;BMP280;27866;48.146;17.098;2022-11-24T23:13:41;99745.84;;;10.74
42197;BMP280;27866;48.146;17.098;2022-11-24T23:17:52;99744.28;;;10.71
42197;BMP280;27866;48.146;17.098;2022-11-24T23:22:03;99745.53;;;10.78
42197;BMP280;27866;48.146;17.098;2022-11-24T23:26:21;99751.84;;;10.74
42197;BMP280;27866;48.146;17.098;2022-11-24T23:30:33;99753.19;;;10.68
42197;BMP280;27866;48.146;17.098;2022-11-24T23:34:44;99754.13;;;10.67
42197;BMP280;27866;48.146;17.098;2022-11-24T23:39:00;99742.94;;;10.54
42197;BMP280;27866;48.146;17.098;2022-11-24T23:43:11;99747.19;;;10.43
42197;BMP280;27866;48.146;17.098;2022-11-24T23:47:22;99754.22;;;10.41
42197;BMP280;27866;48.146;17.098;2022-11-24T23:51:33;99750.50;;;10.45
42197;BMP280;27866;48.146;17.098;2022-11-24T23:55:54;99752.56;;;10.52
